Terminal Aerodrome Forecast
Issued by NWS

Home | Current Version | Previous Version | Text Only | Print | Product List | Glossary Off
Versions: 1 2 3 4 5 6 7 8 9 10 11 12 13 14 15 16 17 18 19 20

000
FTUS42 KMHX 031137
TAFISO
TAF
KISO 031137Z 0312/0412 06008KT P6SM SCT025 BKN040
     FM031400 08006KT P6SM VCSH SCT010 OVC022
     FM040000 20010KT 4SM BR OVC005 WS015/22040KT
      AMD LTD TO CLD VIS AND WIND=

USA.gov is the U.S. government's official web portal to all federal, state and local government web resources and services.